createdAt,value
2022-07-25T00:00:02.577Z,0
2022-07-25T00:05:03.703Z,0
2022-07-25T00:10:03.285Z,0
2022-07-25T00:15:03.131Z,0
2022-07-25T00:20:02.973Z,0
2022-07-25T00:25:02.833Z,0
2022-07-25T00:30:02.785Z,0
2022-07-25T00:35:02.664Z,0
2022-07-25T00:40:03.391Z,0
2022-07-25T00:45:03.110Z,0
2022-07-25T00:50:02.833Z,0
2022-07-25T00:55:04.158Z,0
2022-07-25T01:00:03.370Z,0
2022-07-25T01:05:03.086Z,0
2022-07-25T01:10:02.921Z,0
2022-07-25T01:15:03.291Z,0
2022-07-25T01:20:03.471Z,0
2022-07-25T01:25:03.134Z,0
2022-07-25T01:30:03.012Z,0
2022-07-25T01:35:02.789Z,0
2022-07-25T01:40:03.910Z,0
2022-07-25T01:45:03.449Z,0
2022-07-25T01:50:02.467Z,0
2022-07-25T01:55:06.384Z,0
2022-07-25T02:00:03.366Z,0
2022-07-25T02:05:03.537Z,0
2022-07-25T02:10:03.018Z,0
2022-07-25T02:15:02.917Z,0
2022-07-25T02:20:02.834Z,0
2022-07-25T02:25:03.590Z,0
2022-07-25T02:30:03.423Z,0.11
2022-07-25T02:35:03.286Z,0.34
2022-07-25T02:40:02.761Z,0.79
2022-07-25T02:45:03.490Z,1.58
2022-07-25T02:50:03.151Z,3.28
2022-07-25T02:55:10.230Z,6.56
2022-07-25T03:00:03.209Z,5
2022-07-25T03:05:02.702Z,13.33
2022-07-25T03:10:11.784Z,26.67
2022-07-25T03:15:02.232Z,68.33
2022-07-25T03:20:03.516Z,93.33
2022-07-25T03:25:03.184Z,130
2022-07-25T03:30:03.213Z,183.33
2022-07-25T03:35:03.017Z,240
2022-07-25T03:40:02.651Z,320
2022-07-25T03:45:03.492Z,426.67
2022-07-25T03:50:03.200Z,561.67
2022-07-25T03:55:03.872Z,696.67
2022-07-25T04:00:02.624Z,743.33
2022-07-25T04:05:03.436Z,830
2022-07-25T04:10:03.260Z,935
2022-07-25T04:15:03.219Z,1035
2022-07-25T04:20:07.785Z,1106.67
2022-07-25T04:25:03.578Z,1143.33
2022-07-25T04:30:03.167Z,1140
2022-07-25T04:35:02.821Z,1095
2022-07-25T04:40:02.701Z,1203.33
2022-07-25T04:45:02.765Z,1470
2022-07-25T04:50:03.359Z,1538.33
2022-07-25T04:55:03.707Z,2625
2022-07-25T05:00:03.159Z,3418.33
2022-07-25T05:05:03.625Z,3485
2022-07-25T05:10:03.446Z,3721.67
2022-07-25T05:15:03.302Z,4021.67
2022-07-25T05:20:03.169Z,4781.67
2022-07-25T05:25:03.113Z,5395
2022-07-25T05:30:02.850Z,5326.67
2022-07-25T05:35:03.451Z,5261.67
2022-07-25T05:40:03.096Z,6750
2022-07-25T05:45:03.232Z,6950
2022-07-25T05:50:02.824Z,7756.67
2022-07-25T05:55:03.429Z,10451.67
2022-07-25T06:00:03.290Z,12971.67
2022-07-25T06:05:03.150Z,9656.67
2022-07-25T06:10:02.858Z,9215
2022-07-25T06:15:04.082Z,9645
2022-07-25T06:20:03.457Z,10105
2022-07-25T06:25:03.213Z,9813.33
2022-07-25T06:30:02.977Z,10686.67
2022-07-25T06:35:03.019Z,11670
2022-07-25T06:40:03.013Z,12983.33
2022-07-25T06:45:02.813Z,12663.33
2022-07-25T06:50:03.556Z,13260
2022-07-25T06:55:03.889Z,27306.67
2022-07-25T07:00:02.952Z,27783.33
2022-07-25T07:05:02.656Z,28250
2022-07-25T07:10:03.260Z,29186.67
2022-07-25T07:15:02.966Z,31463.33
2022-07-25T07:20:03.024Z,30473.33
2022-07-25T07:25:05.630Z,31430
2022-07-25T07:30:03.049Z,31373.33
2022-07-25T07:35:02.742Z,33343.33
2022-07-25T07:40:02.486Z,41653.33
2022-07-25T07:45:03.412Z,60689.45
2022-07-25T07:50:03.327Z,46760
2022-07-25T07:55:04.218Z,40890
2022-07-25T08:00:03.071Z,39270
2022-07-25T08:05:02.904Z,40266.67
2022-07-25T08:10:02.831Z,37543.33
2022-07-25T08:15:02.207Z,37670
2022-07-25T08:20:38.650Z,44136.67
2022-07-25T08:25:03.012Z,41026.67
2022-07-25T08:30:02.729Z,37000
2022-07-25T08:35:02.523Z,36236.67
2022-07-25T08:40:03.238Z,46510
2022-07-25T08:45:02.945Z,47803.33
2022-07-25T08:50:05.120Z,57810.86
2022-07-25T08:55:03.818Z,61925.7
2022-07-25T09:00:03.404Z,59185.47
2022-07-25T09:05:03.428Z,61070.39
2022-07-25T09:10:03.066Z,59688.59
2022-07-25T09:15:03.510Z,63009.22
2022-07-25T09:20:02.661Z,49660
2022-07-25T09:25:03.526Z,59835.94
2022-07-25T09:30:03.546Z,46163.33
2022-07-25T09:35:03.176Z,47640
2022-07-25T09:40:03.014Z,46700
2022-07-25T09:45:02.832Z,59839.53
2022-07-25T09:50:03.425Z,65990.23
2022-07-25T09:55:03.940Z,65289.45
2022-07-25T10:00:02.931Z,66399.92
2022-07-25T10:05:02.475Z,6026.67
2022-07-25T10:10:03.071Z,63289.53
2022-07-25T10:15:02.908Z,39363.33
2022-07-25T10:20:02.593Z,9106.67
2022-07-25T10:25:03.320Z,80156.8
2022-07-25T10:30:03.198Z,9841.67
2022-07-25T10:35:02.691Z,42570
2022-07-25T10:40:02.526Z,76638.52
2022-07-25T10:45:03.434Z,81800.94
2022-07-25T10:50:56.838Z,85908.59
2022-07-25T10:55:03.426Z,88262.5
2022-07-25T11:00:03.422Z,84758.59
2022-07-25T11:05:02.954Z,87028.05
2022-07-25T11:10:02.651Z,35646.67
2022-07-25T11:15:03.485Z,82318.44
2022-07-25T11:20:03.439Z,85953.52
2022-07-25T11:25:03.281Z,83001.25
2022-07-25T11:30:02.967Z,96028.59
2022-07-25T11:35:02.706Z,97000.7
2022-07-25T11:40:03.331Z,89861.72
2022-07-25T11:45:03.056Z,69955.94
2022-07-25T11:50:02.686Z,10820
2022-07-25T11:55:04.153Z,91198.59
2022-07-25T12:00:03.254Z,90120.47
2022-07-25T12:05:02.984Z,87403.59
2022-07-25T12:10:02.633Z,80550.31
2022-07-25T12:15:03.387Z,76419.3
2022-07-25T12:20:11.472Z,79544.06
2022-07-25T12:25:03.218Z,77209.92
2022-07-25T12:30:03.344Z,74865
2022-07-25T12:35:03.521Z,10355
2022-07-25T12:40:02.910Z,49423.33
2022-07-25T12:45:03.606Z,70441.09
2022-07-25T12:50:03.308Z,67239.06
2022-07-25T12:55:03.904Z,67447.5
2022-07-25T13:00:02.713Z,69727.73
2022-07-25T13:05:03.386Z,62180.86
2022-07-25T13:10:03.139Z,66473.59
2022-07-25T13:15:02.796Z,49976.67
2022-07-25T13:20:02.754Z,41120
2022-07-25T13:25:03.535Z,46253.33
2022-07-25T13:30:03.397Z,10961.67
2022-07-25T13:35:02.961Z,10351.67
2022-07-25T13:40:02.787Z,10415
2022-07-25T13:45:03.519Z,11766.67
2022-07-25T13:50:03.205Z,11113.33
2022-07-25T13:55:03.635Z,10401.67
2022-07-25T14:00:02.740Z,10373.33
2022-07-25T14:05:04.877Z,30633.33
2022-07-25T14:10:03.110Z,36483.33
2022-07-25T14:15:02.723Z,61747.81
2022-07-25T14:20:02.563Z,37983.33
2022-07-25T14:25:03.505Z,41046.67
2022-07-25T14:30:03.282Z,49933.33
2022-07-25T14:35:02.973Z,44756.67
2022-07-25T14:40:03.130Z,29763.33
2022-07-25T14:45:03.474Z,7598.33
2022-07-25T14:50:03.325Z,8276.67
2022-07-25T14:55:03.972Z,6605
2022-07-25T15:00:03.024Z,6870
2022-07-25T15:05:02.950Z,6131.67
2022-07-25T15:10:03.295Z,6213.33
2022-07-25T15:15:03.063Z,7155
2022-07-25T15:20:02.758Z,8040
2022-07-25T15:26:03.409Z,11115
2022-07-25T15:30:03.088Z,6308.33
2022-07-25T15:35:02.762Z,6373.33
2022-07-25T15:40:03.446Z,12446.67
2022-07-25T15:45:30.011Z,33826.67
2022-07-25T15:50:02.706Z,33640
2022-07-25T15:55:05.310Z,9740
2022-07-25T16:00:03.265Z,8061.67
2022-07-25T16:05:02.885Z,5805
2022-07-25T16:10:02.688Z,2768.33
2022-07-25T16:15:03.433Z,2346.67
2022-07-25T16:20:03.136Z,2331.67
2022-07-25T16:25:02.861Z,2601.67
2022-07-25T16:30:03.474Z,2296.67
2022-07-25T16:35:03.149Z,1820
2022-07-25T16:40:02.875Z,1355
2022-07-25T16:45:03.622Z,1268.33
2022-07-25T16:50:03.200Z,640
2022-07-25T16:55:04.325Z,155
2022-07-25T17:00:02.822Z,126.67
2022-07-25T17:05:03.979Z,111.67
2022-07-25T17:10:03.227Z,161.67
2022-07-25T17:15:03.025Z,286.67
2022-07-25T17:20:02.757Z,565
2022-07-25T17:25:02.488Z,1268.33
2022-07-25T17:35:02.853Z,1955
2022-07-25T17:40:02.697Z,2043.33
2022-07-25T17:45:03.268Z,1755
2022-07-25T17:50:03.000Z,2346.67
2022-07-25T17:55:04.014Z,1758.33
2022-07-25T18:00:04.163Z,1301.67
2022-07-25T18:05:02.849Z,1110
2022-07-25T18:10:02.870Z,665
2022-07-25T18:15:02.577Z,443.33
2022-07-25T18:20:03.332Z,496.67
2022-07-25T18:25:03.151Z,631.67
2022-07-25T18:30:02.903Z,513.33
2022-07-25T18:35:02.636Z,338.33
2022-07-25T18:40:03.323Z,296.67
2022-07-25T18:45:03.116Z,200
2022-07-25T18:50:02.773Z,193.33
2022-07-25T18:55:03.706Z,148.33
2022-07-25T19:00:04.175Z,90
2022-07-25T19:05:03.519Z,56.67
2022-07-25T19:10:02.934Z,33.33
2022-07-25T19:15:02.825Z,20
2022-07-25T19:20:03.489Z,10
2022-07-25T19:25:03.200Z,6.67
2022-07-25T19:30:03.032Z,5
2022-07-25T19:35:02.639Z,6.56
2022-07-25T19:40:03.352Z,3.51
2022-07-25T19:45:03.226Z,2.26
2022-07-25T19:50:02.765Z,1.02
2022-07-25T19:55:04.186Z,0.45
2022-07-25T20:00:03.294Z,0.23
2022-07-25T20:05:02.865Z,0
2022-07-25T20:10:03.996Z,0
2022-07-25T20:15:03.283Z,0
2022-07-25T20:20:03.052Z,0
2022-07-25T20:25:02.776Z,0
2022-07-25T20:30:03.371Z,0
2022-07-25T20:35:03.238Z,0
2022-07-25T20:40:02.984Z,0
2022-07-25T20:45:03.622Z,0
2022-07-25T20:50:03.344Z,0
2022-07-25T20:55:07.345Z,0
2022-07-25T21:00:03.316Z,0
2022-07-25T21:05:03.020Z,0
2022-07-25T21:10:02.734Z,0
2022-07-25T21:15:03.443Z,0
2022-07-25T21:20:03.218Z,0
2022-07-25T21:25:02.919Z,0
2022-07-25T21:30:02.835Z,0
2022-07-25T21:35:03.442Z,0
2022-07-25T21:40:03.336Z,0
2022-07-25T21:45:03.173Z,0
2022-07-25T21:50:03.747Z,0
2022-07-25T21:55:03.698Z,0
2022-07-25T22:00:02.781Z,0
2022-07-25T22:05:03.483Z,0
2022-07-25T22:10:03.133Z,0
2022-07-25T22:15:02.814Z,0
2022-07-25T22:20:02.772Z,0
2022-07-25T22:25:02.544Z,0
2022-07-25T22:30:03.239Z,0
2022-07-25T22:35:06.719Z,0
2022-07-25T22:40:03.372Z,0
2022-07-25T22:45:03.131Z,0
2022-07-25T22:50:02.644Z,0
2022-07-25T22:55:04.117Z,0
2022-07-25T23:00:03.149Z,0
2022-07-25T23:05:02.831Z,0
2022-07-25T23:10:02.626Z,0
2022-07-25T23:15:03.353Z,0
2022-07-25T23:20:03.319Z,0
2022-07-25T23:25:03.112Z,0
2022-07-25T23:30:02.834Z,0
2022-07-25T23:35:02.657Z,0
2022-07-25T23:40:03.278Z,0
2022-07-25T23:45:03.510Z,0
2022-07-25T23:50:03.217Z,0
2022-07-25T23:55:03.872Z,0
